Time;durP1;ratioP1;P1;durP2;ratioP2;P2;SDS_P1;SDS_P2;PMS_P1;PMS_P2;Temp;Humidity;BMP_temperature;BMP_pressure;BME280_temperature;BME280_humidity;BME280_pressure;Samples;Min_cycle;Max_cycle;Signal;HPM_P1;HPM_P2
2023/06/02 00:03:37;;;;;;;;;;;;;;;22.80;45.16;95463.84;10312770;28;1877;-64
2023/06/02 00:08:40;;;;;;;;;;;;;;;22.80;45.19;95463.84;10305786;28;1878;-64
2023/06/02 00:13:40;;;;;;;;;;;;;;;22.78;45.13;95461.50;10308071;28;1919;-63
2023/06/02 00:18:40;;;;;;;;;;;;;;;22.79;45.12;95454.38;10308078;28;1908;-63
2023/06/02 00:23:41;;;;;;;;;;;;;;;22.79;44.68;95467.59;10306398;28;1874;-64
2023/06/02 00:28:41;;;;;;;;;;;;;;;22.78;44.73;95464.16;10304456;28;4487;-64
2023/06/02 00:33:41;;;;;;;;;;;;;;;22.79;44.74;95462.28;10310087;28;2044;-64
2023/06/02 00:38:41;;;;;;;;;;;;;;;22.78;44.66;95460.72;10308055;28;1882;-63
2023/06/02 00:43:42;;;;;;;;;;;;;;;22.77;44.77;95465.25;10307832;28;1906;-63
2023/06/02 00:48:42;;;;;;;;;;;;;;;22.78;44.76;95468.63;10304023;28;2254;-63
2023/06/02 00:53:43;;;;;;;;;;;;;;;22.77;44.64;95462.59;10304650;28;2483;-63
2023/06/02 00:58:44;;;;;;;;;;;;;;;22.77;44.60;95457.31;10305901;28;1946;-63
2023/06/02 01:03:44;;;;;;;;;;;;;;;22.77;44.68;95454.66;10303859;28;1897;-63
2023/06/02 01:08:45;;;;;;;;;;;;;;;22.76;44.64;95454.94;10296346;28;1967;-64
2023/06/02 01:13:47;;;;;;;;;;;;;;;22.76;44.58;95455.72;10293181;28;2007;-63
2023/06/02 01:18:49;;;;;;;;;;;;;;;22.75;44.49;95448.88;10307847;28;2028;-63
2023/06/02 01:23:53;;;;;;;;;;;;;;;22.76;44.28;95450.44;10300642;28;1932;-64
2023/06/02 01:28:53;;;;;;;;;;;;;;;22.76;44.43;95442.53;10304498;28;4441;-63
2023/06/02 01:34:02;;;;;;;;;;;;;;;22.76;44.22;95452.28;10309438;28;1963;-63
2023/06/02 01:39:02;;;;;;;;;;;;;;;22.76;44.27;95447.00;10301944;28;2018;-63
2023/06/02 01:44:03;;;;;;;;;;;;;;;22.76;44.26;95452.28;10289923;28;2101;-63
2023/06/02 01:49:03;;;;;;;;;;;;;;;22.75;44.18;95440.94;10319917;28;2397;-63
2023/06/02 01:54:04;;;;;;;;;;;;;;;22.75;44.01;95445.47;10301413;28;1944;-63
2023/06/02 01:59:04;;;;;;;;;;;;;;;22.73;44.45;95435.16;10303217;28;1985;-64
2023/06/02 02:04:05;;;;;;;;;;;;;;;22.75;44.19;95442.81;10304143;28;2022;-62
2023/06/02 02:09:07;;;;;;;;;;;;;;;22.74;44.40;95439.38;10300111;28;1929;-65
2023/06/02 02:14:08;;;;;;;;;;;;;;;22.76;43.97;95436.44;10301776;28;1996;-65
2023/06/02 02:19:09;;;;;;;;;;;;;;;22.74;44.05;95442.03;10301898;28;2043;-64
2023/06/02 02:24:09;;;;;;;;;;;;;;;22.75;44.12;95429.59;10300436;28;1991;-65
2023/06/02 02:29:09;;;;;;;;;;;;;;;22.74;44.26;95441.25;10306162;28;4455;-64
2023/06/02 02:34:10;;;;;;;;;;;;;;;22.74;44.20;95446.53;10306230;28;1960;-65
2023/06/02 02:39:10;;;;;;;;;;;;;;;22.74;44.16;95435.97;10301791;28;1989;-65
2023/06/02 02:44:10;;;;;;;;;;;;;;;22.74;44.13;95433.31;10300462;28;2066;-64
2023/06/02 02:49:10;;;;;;;;;;;;;;;22.74;43.87;95435.97;10304306;28;2294;-64
2023/06/02 02:54:11;;;;;;;;;;;;;;;22.73;43.95;95437.81;10303661;28;1981;-62
2023/06/02 02:59:12;;;;;;;;;;;;;;;22.73;44.01;95432.53;10301145;28;1925;-65
2023/06/02 03:04:18;;;;;;;;;;;;;;;22.73;43.81;95424.59;10309910;28;1901;-63
2023/06/02 03:09:18;;;;;;;;;;;;;;;22.73;44.03;95424.59;10307011;28;1983;-66
2023/06/02 03:14:18;;;;;;;;;;;;;;;22.74;43.69;95438.59;10310770;28;1984;-65
2023/06/02 03:19:18;;;;;;;;;;;;;;;22.73;43.92;95432.53;10310995;28;1908;-65
2023/06/02 03:24:19;;;;;;;;;;;;;;;22.73;43.83;95431.75;10309613;28;1952;-65
2023/06/02 03:29:19;;;;;;;;;;;;;;;22.74;43.87;95438.59;10295923;28;4348;-64
2023/06/02 03:34:20;;;;;;;;;;;;;;;22.72;43.82;95441.53;10311569;28;2016;-64
2023/06/02 03:39:20;;;;;;;;;;;;;;;22.73;43.84;95443.09;10307329;28;2196;-65
2023/06/02 03:44:20;;;;;;;;;;;;;;;22.74;43.83;95449.16;10309429;28;2476;-65
2023/06/02 03:49:21;;;;;;;;;;;;;;;22.72;43.52;95457.41;10305789;28;1953;-65
2023/06/02 03:54:21;;;;;;;;;;;;;;;22.73;43.77;95460.81;10308530;28;2196;-65
2023/06/02 03:59:21;;;;;;;;;;;;;;;22.73;43.82;95458.19;10306834;28;2232;-65
2023/06/02 04:04:22;;;;;;;;;;;;;;;22.72;43.83;95456.59;10307316;28;2049;-65
2023/06/02 04:09:22;;;;;;;;;;;;;;;22.73;43.85;95458.19;10303764;28;1976;-64
2023/06/02 04:14:22;;;;;;;;;;;;;;;22.74;43.41;95470.31;10308089;28;1988;-65
2023/06/02 04:19:23;;;;;;;;;;;;;;;22.73;43.75;95468.75;10306437;28;1984;-64
2023/06/02 04:24:23;;;;;;;;;;;;;;;22.73;43.46;95474.81;10304709;28;1987;-64
2023/06/02 04:29:24;;;;;;;;;;;;;;;22.73;43.56;95474.81;10307414;28;1937;-64
2023/06/02 04:34:24;;;;;;;;;;;;;;;22.73;43.65;95471.41;10310032;28;1954;-64
2023/06/02 04:39:25;;;;;;;;;;;;;;;22.73;43.39;95474.03;10313478;28;2075;-64
2023/06/02 04:44:25;;;;;;;;;;;;;;;22.73;43.54;95479.31;10294947;28;1983;-64
2023/06/02 04:49:26;;;;;;;;;;;;;;;22.73;43.72;95480.09;10305464;28;1936;-64
2023/06/02 04:54:26;;;;;;;;;;;;;;;22.74;43.62;95480.88;10305484;28;2020;-64
2023/06/02 04:59:27;;;;;;;;;;;;;;;22.74;43.70;95472.94;10304114;28;2008;-64
2023/06/02 05:04:27;;;;;;;;;;;;;;;22.74;43.74;95478.22;10309689;28;2088;-64
2023/06/02 05:09:28;;;;;;;;;;;;;;;22.72;43.73;95473.25;10306430;28;2058;-57
2023/06/02 05:14:28;;;;;;;;;;;;;;;22.73;43.77;95480.09;10302708;28;1994;-64
2023/06/02 05:19:29;;;;;;;;;;;;;;;22.74;43.64;95483.53;10303384;28;1991;-64
2023/06/02 05:24:29;;;;;;;;;;;;;;;22.74;43.72;95478.22;10306159;28;2046;-63
2023/06/02 05:29:29;;;;;;;;;;;;;;;22.74;43.65;95480.88;10302176;28;4366;-64
2023/06/02 05:34:31;;;;;;;;;;;;;;;22.74;43.67;95478.22;10302656;28;2309;-64
2023/06/02 05:39:31;;;;;;;;;;;;;;;22.74;43.59;95481.66;10299035;28;2082;-64
2023/06/02 05:44:31;;;;;;;;;;;;;;;22.74;43.52;95478.22;10303725;28;2015;-64
2023/06/02 05:49:32;;;;;;;;;;;;;;;22.74;43.44;95481.66;10304246;28;1985;-63
2023/06/02 05:54:32;;;;;;;;;;;;;;;22.74;43.42;95486.16;10303455;28;1972;-64
2023/06/02 05:59:32;;;;;;;;;;;;;;;22.74;43.15;95483.53;10302363;28;1898;-66
2023/06/02 06:04:32;;;;;;;;;;;;;;;22.73;42.91;95497.81;10305185;28;1890;-65
2023/06/02 06:09:33;;;;;;;;;;;;;;;22.72;43.12;95498.88;10298716;28;1890;-66
2023/06/02 06:14:33;;;;;;;;;;;;;;;22.72;43.01;95498.88;10304627;28;1918;-66
2023/06/02 06:19:33;;;;;;;;;;;;;;;22.71;42.84;95502.63;10300702;28;1901;-66
2023/06/02 06:24:33;;;;;;;;;;;;;;;22.72;43.18;95504.16;10300074;28;1871;-65
2023/06/02 06:29:34;;;;;;;;;;;;;;;22.73;43.25;95505.75;10304761;28;4403;-63
2023/06/02 06:34:34;;;;;;;;;;;;;;;22.74;43.20;95515.22;10304112;28;2276;-63
2023/06/02 06:39:35;;;;;;;;;;;;;;;22.73;42.68;95505.75;10292955;28;1886;-65
2023/06/02 06:44:35;;;;;;;;;;;;;;;22.72;42.89;95514.75;10297037;28;1887;-70
2023/06/02 06:49:35;;;;;;;;;;;;;;;22.74;42.85;95515.22;10298963;28;1954;-64
2023/06/02 06:54:35;;;;;;;;;;;;;;;22.74;42.92;95515.22;10301353;28;1946;-63
2023/06/02 06:59:36;;;;;;;;;;;;;;;22.76;43.29;95521.00;10296969;28;1874;-63
2023/06/02 07:04:36;;;;;;;;;;;;;;;22.76;43.37;95523.66;10301010;28;1981;-62
2023/06/02 07:09:36;;;;;;;;;;;;;;;22.77;43.54;95523.38;10296367;28;1799;-65
2023/06/02 07:14:36;;;;;;;;;;;;;;;22.76;43.38;95527.06;10296869;28;1881;-68
2023/06/02 07:19:37;;;;;;;;;;;;;;;22.78;43.21;95529.41;10293351;28;1901;-70
2023/06/02 07:24:37;;;;;;;;;;;;;;;22.78;43.13;95532.84;10295728;28;1851;-66
2023/06/02 07:29:37;;;;;;;;;;;;;;;22.80;43.11;95521.97;10298436;28;4367;-68
2023/06/02 07:34:37;;;;;;;;;;;;;;;22.77;43.14;95525.22;10299069;28;1914;-69
2023/06/02 07:39:38;;;;;;;;;;;;;;;22.78;43.21;95529.41;10297635;28;1996;-68
2023/06/02 07:44:38;;;;;;;;;;;;;;;22.79;43.10;95531.00;10298991;28;1962;-68
2023/06/02 07:49:38;;;;;;;;;;;;;;;22.79;43.07;95525.72;10296455;28;1913;-69
2023/06/02 07:54:39;;;;;;;;;;;;;;;22.80;43.25;95522.78;10291457;28;2009;-69
2023/06/02 07:59:39;;;;;;;;;;;;;;;22.80;43.41;95519.34;10303177;28;1862;-68
2023/06/02 08:04:39;;;;;;;;;;;;;;;22.79;43.35;95521.22;10289979;28;1898;-67
2023/06/02 08:09:39;;;;;;;;;;;;;;;22.80;43.19;95528.06;10304606;28;2002;-68
2023/06/02 08:14:40;;;;;;;;;;;;;;;22.81;43.03;95523.56;10304391;28;1988;-69
2023/06/02 08:19:40;;;;;;;;;;;;;;;22.81;42.95;95519.06;10303308;28;1866;-69
2023/06/02 08:24:41;;;;;;;;;;;;;;;22.81;43.20;95518.28;10305388;28;2479;-66
2023/06/02 08:29:42;;;;;;;;;;;;;;;22.81;42.99;95521.72;10302889;28;4406;-67
2023/06/02 08:34:44;;;;;;;;;;;;;;;22.81;42.77;95513.78;10300802;28;1976;-66
2023/06/02 08:39:44;;;;;;;;;;;;;;;22.80;42.83;95512.19;10302357;28;1910;-67
2023/06/02 08:44:45;;;;;;;;;;;;;;;22.82;42.28;95514.53;10301277;28;1921;-69
2023/06/02 08:49:48;;;;;;;;;;;;;;;22.83;42.66;95501.06;10303897;28;1888;-68
2023/06/02 08:54:49;;;;;;;;;;;;;;;22.83;42.88;95521.41;10303534;28;1972;-63
2023/06/02 08:59:49;;;;;;;;;;;;;;;22.82;42.97;95515.34;10288782;28;1836;-69
2023/06/02 09:04:51;;;;;;;;;;;;;;;22.83;43.10;95522.19;10307076;28;1921;-68
2023/06/02 09:09:52;;;;;;;;;;;;;;;22.85;43.15;95525.34;10302881;28;1918;-66
2023/06/02 09:15:08;;;;;;;;;;;;;;;22.85;43.22;95524.53;10300426;28;1950;-68
2023/06/02 09:20:11;;;;;;;;;;;;;;;22.85;43.37;95524.53;10283849;28;2380;-66
2023/06/02 09:25:25;;;;;;;;;;;;;;;22.86;43.39;95528.75;10289349;28;1906;-66
2023/06/02 09:30:25;;;;;;;;;;;;;;;22.87;43.35;95525.81;10299954;28;4473;-68
2023/06/02 09:35:36;;;;;;;;;;;;;;;22.90;43.26;95535.00;10289918;28;1887;-63
2023/06/02 09:40:36;;;;;;;;;;;;;;;22.90;43.55;95527.06;10300220;28;1843;-64
2023/06/02 09:45:49;;;;;;;;;;;;;;;22.90;43.23;95525.22;10304375;28;1899;-65
2023/06/02 09:50:49;;;;;;;;;;;;;;;22.89;43.52;95530.81;10298061;28;1887;-65
2023/06/02 09:55:50;;;;;;;;;;;;;;;22.89;43.08;95530.81;10300243;28;2007;-63
2023/06/02 10:00:50;;;;;;;;;;;;;;;22.90;43.33;95527.06;10300389;28;1871;-65
2023/06/02 10:06:03;;;;;;;;;;;;;;;22.89;43.39;95521.03;10300597;28;1907;-63
2023/06/02 10:11:09;;;;;;;;;;;;;;;22.91;42.92;95534.72;10298271;28;1873;-64
2023/06/02 10:16:12;;;;;;;;;;;;;;;22.91;43.17;95529.44;10296490;28;2382;-66
2023/06/02 10:21:18;;;;;;;;;;;;;;;22.91;43.27;95520.72;10285363;28;1894;-64
2023/06/02 10:26:37;;;;;;;;;;;;;;;22.91;42.93;95515.44;10300701;28;1898;-65
2023/06/02 10:31:37;;;;;;;;;;;;;;;22.91;42.75;95516.22;10299016;28;1939;-69
2023/06/02 10:36:57;;;;;;;;;;;;;;;22.93;42.88;95515.94;10302146;28;1979;-66
2023/06/02 10:42:06;;;;;;;;;;;;;;;22.92;42.69;95509.06;10297753;28;1838;-65
2023/06/02 10:47:18;;;;;;;;;;;;;;;22.93;42.86;95514.06;10298655;28;1855;-66
2023/06/02 10:52:18;;;;;;;;;;;;;;;22.98;42.93;95505.28;10298723;28;1847;-65
2023/06/02 10:57:38;;;;;;;;;;;;;;;22.99;43.75;95498.88;10305984;28;1950;-64
2023/06/02 11:02:42;;;;;;;;;;;;;;;23.04;44.16;95502.22;10301348;28;1819;-67
2023/06/02 11:07:42;;;;;;;;;;;;;;;23.04;43.90;95496.16;10292511;28;1909;-66
2023/06/02 11:13:09;;;;;;;;;;;;;;;23.05;43.83;95495.06;10299252;28;1834;-66
2023/06/02 11:18:21;;;;;;;;;;;;;;;23.05;44.37;95492.44;10295662;28;1844;-66
2023/06/02 11:23:21;;;;;;;;;;;;;;;23.06;44.13;95494.75;10297369;28;1947;-66
2023/06/02 11:28:22;;;;;;;;;;;;;;;23.07;43.94;95495.56;10303013;28;4380;-66
2023/06/02 11:33:29;;;;;;;;;;;;;;;23.08;43.99;95489.22;10303212;28;1895;-65
2023/06/02 11:38:31;;;;;;;;;;;;;;;23.07;43.93;95477.84;10306377;28;1877;-65
2023/06/02 11:43:31;;;;;;;;;;;;;;;23.06;44.09;95472.84;10307022;28;1921;-66
2023/06/02 11:48:32;;;;;;;;;;;;;;;23.07;44.02;95475.19;10304988;28;1847;-66
2023/06/02 11:53:32;;;;;;;;;;;;;;;23.06;43.97;95465.69;10306701;28;1910;-66
2023/06/02 11:58:39;;;;;;;;;;;;;;;23.08;43.98;95468.06;10303643;28;1940;-66
2023/06/02 12:03:39;;;;;;;;;;;;;;;23.08;44.01;95465.41;10304902;28;1917;-66
2023/06/02 12:08:39;;;;;;;;;;;;;;;23.10;43.99;95473.84;10305372;28;2414;-66
2023/06/02 12:13:40;;;;;;;;;;;;;;;23.10;44.26;95474.59;10305613;28;1918;-66
2023/06/02 12:18:40;;;;;;;;;;;;;;;23.10;43.69;95463.25;10305977;28;1899;-66
2023/06/02 12:23:41;;;;;;;;;;;;;;;23.08;43.65;95458.25;10303284;28;1975;-65
2023/06/02 12:28:41;;;;;;;;;;;;;;;23.09;43.88;95459.81;10302254;28;1934;-63
2023/06/02 12:33:42;;;;;;;;;;;;;;;23.10;43.64;95464.00;10300834;28;1918;-65
2023/06/02 12:38:42;;;;;;;;;;;;;;;23.09;43.59;95466.97;10300515;28;1835;-65
2023/06/02 12:43:43;;;;;;;;;;;;;;;23.10;43.04;95464.00;10300587;28;2006;-66
2023/06/02 12:48:43;;;;;;;;;;;;;;;23.09;42.93;95465.09;10291375;28;1953;-66
2023/06/02 12:53:43;;;;;;;;;;;;;;;23.10;42.96;95452.69;10301323;28;2036;-66
2023/06/02 12:58:44;;;;;;;;;;;;;;;23.10;42.74;95445.50;10303385;28;1916;-66
2023/06/02 13:03:49;;;;;;;;;;;;;;;23.12;42.89;95450.53;10304574;28;2525;-66
2023/06/02 13:08:50;;;;;;;;;;;;;;;23.11;43.13;95454.22;10302627;28;2090;-66
2023/06/02 13:13:50;;;;;;;;;;;;;;;23.12;43.15;95445.22;10305415;28;1977;-66
2023/06/02 13:18:50;;;;;;;;;;;;;;;23.11;43.07;95438.38;10302881;28;1898;-66
2023/06/02 13:23:51;;;;;;;;;;;;;;;23.13;43.13;95446.78;10287086;28;1898;-65
2023/06/02 13:28:51;;;;;;;;;;;;;;;23.13;43.46;95441.50;10297156;28;4351;-65
2023/06/02 13:33:52;;;;;;;;;;;;;;;23.15;43.32;95448.06;10300335;28;1896;-65
2023/06/02 13:38:52;;;;;;;;;;;;;;;23.15;43.33;95439.34;10302264;28;1918;-65
2023/06/02 13:43:53;;;;;;;;;;;;;;;23.15;43.45;95434.03;10300276;28;1859;-65
2023/06/02 13:48:54;;;;;;;;;;;;;;;23.14;43.27;95435.91;10286435;28;1831;-65
2023/06/02 13:53:54;;;;;;;;;;;;;;;23.14;43.47;95432.50;10301127;28;1895;-66
2023/06/02 13:58:54;;;;;;;;;;;;;;;23.15;43.04;95431.41;10302173;28;1827;-65
2023/06/02 14:03:55;;;;;;;;;;;;;;;23.15;43.31;95434.84;10300286;28;1889;-66
2023/06/02 14:08:55;;;;;;;;;;;;;;;23.14;43.20;95432.50;10299944;28;2062;-65
2023/06/02 14:13:55;;;;;;;;;;;;;;;23.15;43.11;95434.03;10300056;28;1914;-66
2023/06/02 14:18:56;;;;;;;;;;;;;;;23.15;43.05;95439.34;10299114;28;1866;-66
2023/06/02 14:23:56;;;;;;;;;;;;;;;23.15;42.72;95429.56;10298952;28;1913;-65
2023/06/02 14:28:56;;;;;;;;;;;;;;;23.15;42.41;95428.75;10298007;28;4289;-64
2023/06/02 14:33:57;;;;;;;;;;;;;;;23.15;42.50;95434.03;10297676;28;1982;-65
2023/06/02 14:38:57;;;;;;;;;;;;;;;23.17;41.59;95421.31;10301687;28;1878;-65
2023/06/02 14:43:57;;;;;;;;;;;;;;;23.17;41.94;95431.88;10299234;28;1889;-66
2023/06/02 14:48:58;;;;;;;;;;;;;;;23.14;41.83;95425.31;10301359;28;2000;-66
2023/06/02 14:53:58;;;;;;;;;;;;;;;23.14;41.55;95427.97;10306747;28;1909;-66
2023/06/02 14:58:58;;;;;;;;;;;;;;;23.15;41.39;95434.03;10303016;28;2454;-64
2023/06/02 15:03:58;;;;;;;;;;;;;;;23.16;41.42;95430.34;10302473;28;1935;-64
2023/06/02 15:08:59;;;;;;;;;;;;;;;23.14;41.46;95422.69;10306165;28;1994;-64
2023/06/02 15:13:59;;;;;;;;;;;;;;;23.13;41.08;95415.84;10309515;28;1886;-64
2023/06/02 15:18:59;;;;;;;;;;;;;;;23.16;41.19;95419.75;10306364;28;1921;-66
2023/06/02 15:24:00;;;;;;;;;;;;;;;23.13;41.34;95431.72;10312026;28;1788;-65
2023/06/02 15:29:00;;;;;;;;;;;;;;;23.15;41.09;95418.19;10293002;28;4403;-65
2023/06/02 15:34:01;;;;;;;;;;;;;;;23.15;41.26;95434.03;10311067;28;1971;-65
2023/06/02 15:39:01;;;;;;;;;;;;;;;23.13;40.97;95418.50;10312328;28;1962;-65
2023/06/02 15:44:01;;;;;;;;;;;;;;;23.13;41.09;95415.06;10308968;28;1894;-65
2023/06/02 15:49:01;;;;;;;;;;;;;;;23.14;41.17;95425.31;10307806;28;1870;-65
2023/06/02 15:54:02;;;;;;;;;;;;;;;23.13;40.90;95415.06;10309572;28;2352;-65
2023/06/02 15:59:02;;;;;;;;;;;;;;;23.12;41.05;95411.63;10294137;28;1917;-65
2023/06/02 16:04:06;;;;;;;;;;;;;;;23.12;40.93;95422.19;10306428;28;1958;-66
2023/06/02 16:09:08;;;;;;;;;;;;;;;23.12;40.53;95410.88;10308286;28;1875;-65
2023/06/02 16:14:08;;;;;;;;;;;;;;;23.12;40.96;95413.50;10293894;28;1898;-67
2023/06/02 16:19:09;;;;;;;;;;;;;;;23.11;40.90;95422.50;10307185;28;1890;-66
2023/06/02 16:24:09;;;;;;;;;;;;;;;23.09;40.67;95420.16;10308890;28;1815;-67
2023/06/02 16:29:09;;;;;;;;;;;;;;;23.10;40.55;95415.66;10308978;28;4446;-66
2023/06/02 16:34:09;;;;;;;;;;;;;;;23.08;40.25;95418.59;10309260;28;1897;-65
2023/06/02 16:39:10;;;;;;;;;;;;;;;23.08;40.45;95420.47;10314579;28;1898;-65
2023/06/02 16:44:10;;;;;;;;;;;;;;;23.10;40.12;95424.34;10304032;28;2113;-66
2023/06/02 16:49:10;;;;;;;;;;;;;;;23.10;39.94;95428.88;10303590;28;2281;-64
2023/06/02 16:54:11;;;;;;;;;;;;;;;23.10;40.13;95429.66;10304126;28;1977;-66
2023/06/02 16:59:11;;;;;;;;;;;;;;;23.10;39.72;95421.72;10304868;28;3699;-67
2023/06/02 17:04:14;;;;;;;;;;;;;;;23.08;39.94;95431.03;10304994;28;1870;-64
2023/06/02 17:09:15;;;;;;;;;;;;;;;23.08;39.95;95433.69;10308841;28;1878;-62
2023/06/02 17:14:16;;;;;;;;;;;;;;;23.08;39.81;95428.41;10305019;28;1988;-63
2023/06/02 17:19:16;;;;;;;;;;;;;;;23.08;39.66;95433.69;10302987;28;1915;-64
2023/06/02 17:24:16;;;;;;;;;;;;;;;23.06;39.43;95435.84;10305698;28;1863;-64
2023/06/02 17:29:17;;;;;;;;;;;;;;;23.04;38.96;95427.44;10309122;28;4485;-65
2023/06/02 17:34:17;;;;;;;;;;;;;;;22.99;38.45;95430.16;10308576;28;1953;-63
2023/06/02 17:39:18;;;;;;;;;;;;;;;22.96;37.88;95444.75;10305070;28;1879;-65
2023/06/02 17:44:18;;;;;;;;;;;;;;;22.96;38.53;95446.59;10304256;28;1891;-62
2023/06/02 17:49:18;;;;;;;;;;;;;;;22.96;37.85;95446.59;10315129;28;2324;-65
2023/06/02 17:54:20;;;;;;;;;;;;;;;22.92;36.89;95456.19;10309147;28;1887;-64
2023/06/02 17:59:20;;;;;;;;;;;;;;;22.89;36.87;95464.72;10300990;28;1894;-64
2023/06/02 18:04:20;;;;;;;;;;;;;;;22.87;36.64;95466.88;10300964;28;1879;-65
2023/06/02 18:09:21;;;;;;;;;;;;;;;22.85;36.76;95466.41;10292799;28;1860;-65
2023/06/02 18:14:21;;;;;;;;;;;;;;;22.83;35.69;95473.84;10297843;28;1919;-65
2023/06/02 18:19:21;;;;;;;;;;;;;;;22.81;35.54;95465.44;10299733;28;1823;-65
2023/06/02 18:24:22;;;;;;;;;;;;;;;22.79;35.62;95472.88;10305200;28;1907;-64
2023/06/02 18:29:22;;;;;;;;;;;;;;;22.78;35.39;95473.94;10308644;28;4324;-64
2023/06/02 18:34:22;;;;;;;;;;;;;;;22.77;35.33;95480.31;10301075;28;1907;-64
2023/06/02 18:39:23;;;;;;;;;;;;;;;22.77;35.22;95480.31;10303301;28;1881;-64
2023/06/02 18:44:23;;;;;;;;;;;;;;;22.77;35.22;95483.75;10304314;28;2395;-64
2023/06/02 18:49:23;;;;;;;;;;;;;;;22.76;35.60;95484.78;10303367;28;1836;-64
2023/06/02 18:54:23;;;;;;;;;;;;;;;22.75;35.79;95483.22;10303829;28;1947;-64
2023/06/02 18:59:24;;;;;;;;;;;;;;;22.75;35.78;95485.09;10304429;28;1918;-64
2023/06/02 19:04:24;;;;;;;;;;;;;;;22.74;35.57;95484.31;10303089;28;1859;-64
2023/06/02 19:09:24;;;;;;;;;;;;;;;22.74;35.16;95486.16;10305535;28;1878;-65
2023/06/02 19:14:25;;;;;;;;;;;;;;;22.73;35.51;95488.00;10300944;28;1951;-64
2023/06/02 19:19:26;;;;;;;;;;;;;;;22.73;35.56;95497.81;10301998;28;2133;-65
2023/06/02 19:24:26;;;;;;;;;;;;;;;22.73;35.40;95505.75;10304594;28;1890;-64
2023/06/02 19:29:26;;;;;;;;;;;;;;;22.73;35.39;95511.03;10311907;28;1911;-64
2023/06/02 19:34:26;;;;;;;;;;;;;;;22.73;35.76;95521.59;10300429;28;1911;-64
2023/06/02 19:39:27;;;;;;;;;;;;;;;22.72;35.41;95525.31;10303832;28;2725;-64
2023/06/02 19:44:27;;;;;;;;;;;;;;;22.74;35.65;95536.38;10300413;28;2008;-63
2023/06/02 19:49:27;;;;;;;;;;;;;;;22.74;35.80;95531.88;10304314;28;1866;-64
2023/06/02 19:54:29;;;;;;;;;;;;;;;22.73;36.03;95532.16;10303666;28;1910;-64
2023/06/02 19:59:29;;;;;;;;;;;;;;;22.72;36.01;95541.94;10307093;28;1938;-63
2023/06/02 20:04:29;;;;;;;;;;;;;;;22.73;35.88;95545.38;10306336;28;2033;-63
2023/06/02 20:09:30;;;;;;;;;;;;;;;22.72;36.01;95547.22;10310264;28;1936;-64
2023/06/02 20:14:31;;;;;;;;;;;;;;;22.73;36.01;95555.94;10304912;28;1914;-62
2023/06/02 20:19:32;;;;;;;;;;;;;;;22.73;36.02;95563.88;10307198;28;1958;-62
2023/06/02 20:24:32;;;;;;;;;;;;;;;22.74;36.09;95568.06;10304364;28;1792;-61
2023/06/02 20:29:32;;;;;;;;;;;;;;;22.72;35.87;95570.22;10307505;28;4332;-61
2023/06/02 20:34:32;;;;;;;;;;;;;;;22.68;35.68;95564.75;10307814;28;2264;-61
2023/06/02 20:39:33;;;;;;;;;;;;;;;22.67;35.68;95570.31;10305469;28;1985;-61
2023/06/02 20:44:33;;;;;;;;;;;;;;;22.65;35.70;95574.03;10307390;28;1887;-61
2023/06/02 20:49:33;;;;;;;;;;;;;;;22.64;35.77;95577.75;10304126;28;1868;-64
2023/06/02 20:54:34;;;;;;;;;;;;;;;22.67;36.15;95578.25;10308323;28;1994;-64
2023/06/02 20:59:34;;;;;;;;;;;;;;;22.69;36.32;95573.47;10307423;28;1878;-64
2023/06/02 21:04:34;;;;;;;;;;;;;;;22.71;36.77;95577.34;10308182;28;1895;-66
2023/06/02 21:09:35;;;;;;;;;;;;;;;22.73;37.12;95580.50;10305514;28;1879;-62
2023/06/02 21:14:35;;;;;;;;;;;;;;;22.75;37.14;95582.88;10303414;28;1907;-62
2023/06/02 21:19:36;;;;;;;;;;;;;;;22.75;37.54;95585.50;10295807;28;1888;-62
2023/06/02 21:24:36;;;;;;;;;;;;;;;22.74;37.73;95584.72;10304339;28;1847;-62
2023/06/02 21:29:37;;;;;;;;;;;;;;;22.73;37.39;95591.06;10303281;28;4379;-62
2023/06/02 21:34:38;;;;;;;;;;;;;;;22.75;37.71;95585.50;10305822;28;2264;-62
2023/06/02 21:39:38;;;;;;;;;;;;;;;22.74;37.77;95592.66;10301632;28;1934;-63
2023/06/02 21:44:38;;;;;;;;;;;;;;;22.73;37.97;95588.41;10308735;28;1883;-63
2023/06/02 21:49:38;;;;;;;;;;;;;;;22.72;37.96;95592.16;10302239;28;2078;-62
2023/06/02 21:54:39;;;;;;;;;;;;;;;22.73;38.03;95591.06;10303962;28;2125;-62
2023/06/02 21:59:39;;;;;;;;;;;;;;;22.75;37.96;95601.38;10301160;28;1950;-63
2023/06/02 22:04:39;;;;;;;;;;;;;;;22.74;38.03;95591.84;10303376;28;1878;-62
2023/06/02 22:09:40;;;;;;;;;;;;;;;22.70;38.14;95594.31;10306502;28;1851;-63
2023/06/02 22:14:40;;;;;;;;;;;;;;;22.70;38.19;95591.66;10302336;28;1949;-63
2023/06/02 22:19:40;;;;;;;;;;;;;;;22.69;38.22;95594.59;10303255;28;1905;-62
2023/06/02 22:24:41;;;;;;;;;;;;;;;22.67;38.25;95594.88;10303144;28;2088;-62
2023/06/02 22:29:41;;;;;;;;;;;;;;;22.66;38.12;95588.03;10304516;28;4362;-62
2023/06/02 22:34:41;;;;;;;;;;;;;;;22.63;38.25;95586.75;10307147;28;1949;-63
2023/06/02 22:39:41;;;;;;;;;;;;;;;22.62;38.31;95590.47;10306692;28;1818;-62
2023/06/02 22:44:42;;;;;;;;;;;;;;;22.62;38.33;95595.75;10306341;28;1902;-62
2023/06/02 22:49:43;;;;;;;;;;;;;;;22.61;38.36;95588.09;10302014;28;2121;-61
2023/06/02 22:54:43;;;;;;;;;;;;;;;22.59;38.41;95583.13;10303363;28;1982;-62
2023/06/02 22:59:43;;;;;;;;;;;;;;;22.59;38.44;95583.13;10303374;28;1875;-62
2023/06/02 23:04:43;;;;;;;;;;;;;;;22.58;38.45;95589.50;10306858;28;1953;-63
2023/06/02 23:09:44;;;;;;;;;;;;;;;22.58;38.48;95581.56;10307165;28;1866;-63
2023/06/02 23:14:47;;;;;;;;;;;;;;;22.56;38.50;95583.69;10303948;28;1914;-62
2023/06/02 23:19:47;;;;;;;;;;;;;;;22.57;38.61;95584.44;10302113;28;1898;-62
2023/06/02 23:24:48;;;;;;;;;;;;;;;22.57;38.13;95587.09;10312446;28;2187;-62
2023/06/02 23:29:48;;;;;;;;;;;;;;;22.55;38.35;95590.03;10311470;28;1866;-62
2023/06/02 23:34:48;;;;;;;;;;;;;;;22.53;38.36;95578.97;10309872;28;1906;-62
2023/06/02 23:39:49;;;;;;;;;;;;;;;22.52;38.68;95574.75;10307049;28;1853;-63
2023/06/02 23:44:49;;;;;;;;;;;;;;;22.51;38.72;95583.75;10306027;28;1898;-62
2023/06/02 23:49:50;;;;;;;;;;;;;;;22.51;38.71;95582.97;10309509;28;1897;-63
2023/06/02 23:54:50;;;;;;;;;;;;;;;22.47;38.72;95585.41;10304762;28;1980;-62
2023/06/02 23:59:50;;;;;;;;;;;;;;;22.46;38.57;95580.44;10309853;28;1948;-62
